Longwood, North Carolina
Current Conditions -  °F | °C
As of 6:53 PM on Thursday 27 Nov 2014 (Local Time) from KCRE Reporting Station
Clear Clear  
Wind Chill: 43°   Ceiling: Unl
Heat Index: 45°   Visibility: 10mi
Dew Point: 37°   Wind: 5mph
Humidity: 74%   Direction: 330°NNW
Pressure: 30.19"   Gusts: NA
Location:  34°N, 78.54°W
Report Text: KCRE 272353Z 33004KT 10SM CLR 07/03 A3019 RMK AO1 SLP223 T00720028 10133 20072 51032
Loading
Personal Weather Stations






























Interactive Weather Map New forecast layout! Learn more

10-Day Weather Forecast

Advertisements
Track Severe Weather on mobile